sensor_id;sensor_type;location;lat;lon;timestamp;pressure;altitude;pressure_sealevel;temperature;humidity
62126;BME280;69591;53.282;6.150;2023-04-29T00:00:57;101517.22;;;16.26;55.74
62126;BME280;69591;53.282;6.150;2023-04-29T00:01:58;101516.41;;;16.25;55.64
62126;BME280;69591;53.282;6.150;2023-04-29T00:03:00;101514.50;;;16.26;55.59
62126;BME280;69591;53.282;6.150;2023-04-29T00:04:02;101526.19;;;16.26;55.55
62126;BME280;69591;53.282;6.150;2023-04-29T00:05:04;101524.22;;;16.27;55.82
62126;BME280;69591;53.282;6.150;2023-04-29T00:06:06;101530.03;;;16.25;55.55
62126;BME280;69591;53.282;6.150;2023-04-29T00:07:07;101521.88;;;16.25;55.52
62126;BME280;69591;53.282;6.150;2023-04-29T00:08:10;101523.47;;;16.26;55.48
62126;BME280;69591;53.282;6.150;2023-04-29T00:09:12;101519.94;;;16.26;55.74
62126;BME280;69591;53.282;6.150;2023-04-29T00:10:13;101528.91;;;16.26;55.51
62126;BME280;69591;53.282;6.150;2023-04-29T00:11:15;101527.31;;;16.25;55.65
62126;BME280;69591;53.282;6.150;2023-04-29T00:12:16;101526.97;;;16.27;55.78
62126;BME280;69591;53.282;6.150;2023-04-29T00:13:18;101528.91;;;16.26;55.53
62126;BME280;69591;53.282;6.150;2023-04-29T00:14:19;101528.13;;;16.26;55.59
62126;BME280;69591;53.282;6.150;2023-04-29T00:15:21;101524.59;;;16.25;55.62
62126;BME280;69591;53.282;6.150;2023-04-29T00:16:22;101533.56;;;16.26;55.52
62126;BME280;69591;53.282;6.150;2023-04-29T00:17:24;101530.03;;;16.25;55.50
62126;BME280;69591;53.282;6.150;2023-04-29T00:18:25;101528.91;;;16.26;55.72
62126;BME280;69591;53.282;6.150;2023-04-29T00:19:27;101528.13;;;16.26;55.60
62126;BME280;69591;53.282;6.150;2023-04-29T00:20:28;101527.31;;;16.25;55.67
62126;BME280;69591;53.282;6.150;2023-04-29T00:21:29;101527.31;;;16.25;55.66
62126;BME280;69591;53.282;6.150;2023-04-29T00:22:31;101527.31;;;16.25;55.70
62126;BME280;69591;53.282;6.150;2023-04-29T00:23:34;101530.03;;;16.25;55.53
62126;BME280;69591;53.282;6.150;2023-04-29T00:24:35;101530.03;;;16.25;55.56
62126;BME280;69591;53.282;6.150;2023-04-29T00:25:37;101530.03;;;16.25;55.76
62126;BME280;69591;53.282;6.150;2023-04-29T00:26:38;101532.78;;;16.25;55.59
62126;BME280;69591;53.282;6.150;2023-04-29T00:27:40;101535.50;;;16.25;55.50
62126;BME280;69591;53.282;6.150;2023-04-29T00:28:41;101532.78;;;16.25;55.70
62126;BME280;69591;53.282;6.150;2023-04-29T00:29:43;101537.47;;;16.25;55.56
62126;BME280;69591;53.282;6.150;2023-04-29T00:30:44;101535.50;;;16.25;55.83
62126;BME280;69591;53.282;6.150;2023-04-29T00:31:46;101536.66;;;16.24;55.71
62126;BME280;69591;53.282;6.150;2023-04-29T00:32:48;101543.66;;;16.25;55.53
62126;BME280;69591;53.282;6.150;2023-04-29T00:33:49;101544.84;;;16.24;55.59
62126;BME280;69591;53.282;6.150;2023-04-29T00:34:51;101537.47;;;16.25;55.54
62126;BME280;69591;53.282;6.150;2023-04-29T00:35:52;101542.91;;;16.25;55.48
62126;BME280;69591;53.282;6.150;2023-04-29T00:36:54;101543.66;;;16.25;55.83
62126;BME280;69591;53.282;6.150;2023-04-29T00:37:55;101539.38;;;16.24;55.75
62126;BME280;69591;53.282;6.150;2023-04-29T00:38:58;101542.09;;;16.24;55.80
62126;BME280;69591;53.282;6.150;2023-04-29T00:40:00;101544.84;;;16.24;55.51
62126;BME280;69591;53.282;6.150;2023-04-29T00:41:01;101546.00;;;16.23;55.52
62126;BME280;69591;53.282;6.150;2023-04-29T00:42:03;101547.56;;;16.24;55.59
62126;BME280;69591;53.282;6.150;2023-04-29T00:43:04;101547.56;;;16.24;55.69
62126;BME280;69591;53.282;6.150;2023-04-29T00:44:06;101553.00;;;16.24;55.55
62126;BME280;69591;53.282;6.150;2023-04-29T00:45:08;101550.28;;;16.24;55.74
62126;BME280;69591;53.282;6.150;2023-04-29T00:46:09;101557.66;;;16.24;55.80
62126;BME280;69591;53.282;6.150;2023-04-29T00:47:11;101553.81;;;16.25;55.66
62126;BME280;69591;53.282;6.150;2023-04-29T00:48:12;101558.47;;;16.24;55.60
62126;BME280;69591;53.282;6.150;2023-04-29T00:49:14;101552.22;;;16.24;55.58
62126;BME280;69591;53.282;6.150;2023-04-29T00:50:16;101556.53;;;16.25;55.67
62126;BME280;69591;53.282;6.150;2023-04-29T00:51:17;101563.09;;;16.24;55.81
62126;BME280;69591;53.282;6.150;2023-04-29T00:52:19;101557.66;;;16.24;55.75
62126;BME280;69591;53.282;6.150;2023-04-29T00:53:21;101561.19;;;16.24;55.71
62126;BME280;69591;53.282;6.150;2023-04-29T00:54:24;101559.25;;;16.25;55.78
62126;BME280;69591;53.282;6.150;2023-04-29T00:55:27;101566.63;;;16.24;55.50
62126;BME280;69591;53.282;6.150;2023-04-29T00:56:29;101563.91;;;16.24;55.81
62126;BME280;69591;53.282;6.150;2023-04-29T00:57:32;101566.63;;;16.24;55.69
62126;BME280;69591;53.282;6.150;2023-04-29T00:58:33;101568.56;;;16.24;55.56
62126;BME280;69591;53.282;6.150;2023-04-29T00:59:36;101561.19;;;16.24;55.57
62126;BME280;69591;53.282;6.150;2023-04-29T01:00:38;101573.25;;;16.23;55.52
62126;BME280;69591;53.282;6.150;2023-04-29T01:01:40;101565.84;;;16.24;55.81
62126;BME280;69591;53.282;6.150;2023-04-29T01:02:42;101570.50;;;16.23;55.49
62126;BME280;69591;53.282;6.150;2023-04-29T01:03:44;101579.47;;;16.24;55.76
62126;BME280;69591;53.282;6.150;2023-04-29T01:04:46;101570.50;;;16.23;55.78
62126;BME280;69591;53.282;6.150;2023-04-29T01:05:48;101579.47;;;16.24;55.71
62126;BME280;69591;53.282;6.150;2023-04-29T01:06:57;101581.41;;;16.23;55.64
62126;BME280;69591;53.282;6.150;2023-04-29T01:08:03;101578.69;;;16.23;55.77
62126;BME280;69591;53.282;6.150;2023-04-29T01:09:12;101583.34;;;16.23;55.63
62126;BME280;69591;53.282;6.150;2023-04-29T01:10:21;101586.88;;;16.23;55.76
62126;BME280;69591;53.282;6.150;2023-04-29T01:11:27;101584.13;;;16.23;55.82
62126;BME280;69591;53.282;6.150;2023-04-29T01:12:32;101587.63;;;16.24;55.54
62126;BME280;69591;53.282;6.150;2023-04-29T01:13:36;101586.88;;;16.23;55.67
62126;BME280;69591;53.282;6.150;2023-04-29T01:14:45;101590.34;;;16.24;55.55
62126;BME280;69591;53.282;6.150;2023-04-29T01:15:51;101584.13;;;16.23;55.79
62126;BME280;69591;53.282;6.150;2023-04-29T01:16:55;101589.59;;;16.23;55.50
62126;BME280;69591;53.282;6.150;2023-04-29T01:18:02;101590.34;;;16.24;55.64
62126;BME280;69591;53.282;6.150;2023-04-29T01:19:07;101581.41;;;16.23;55.60
62126;BME280;69591;53.282;6.150;2023-04-29T01:20:13;101586.88;;;16.23;55.40
62126;BME280;69591;53.282;6.150;2023-04-29T01:21:15;101586.06;;;16.23;55.54
62126;BME280;69591;53.282;6.150;2023-04-29T01:22:16;101586.88;;;16.23;55.77
62126;BME280;69591;53.282;6.150;2023-04-29T01:23:18;101586.06;;;16.23;55.76
62126;BME280;69591;53.282;6.150;2023-04-29T01:24:21;101589.59;;;16.23;55.79
62126;BME280;69591;53.282;6.150;2023-04-29T01:25:23;101594.25;;;16.23;55.82
62126;BME280;69591;53.282;6.150;2023-04-29T01:26:54;101588.00;;;16.22;55.78
62126;BME280;69591;53.282;6.150;2023-04-29T01:28:24;101589.94;;;16.22;55.42
62126;BME280;69591;53.282;6.150;2023-04-29T01:29:30;101594.25;;;16.23;55.54
62126;BME280;69591;53.282;6.150;2023-04-29T01:30:38;101593.44;;;16.22;55.60
62126;BME280;69591;53.282;6.150;2023-04-29T01:31:43;101596.16;;;16.22;55.56
62126;BME280;69591;53.282;6.150;2023-04-29T01:32:51;101600.50;;;16.23;55.62
62126;BME280;69591;53.282;6.150;2023-04-29T01:33:57;101605.13;;;16.23;55.60
62126;BME280;69591;53.282;6.150;2023-04-29T01:35:03;101600.50;;;16.23;55.86
62126;BME280;69591;53.282;6.150;2023-04-29T01:36:11;101600.50;;;16.23;55.76
62126;BME280;69591;53.282;6.150;2023-04-29T01:37:17;101611.38;;;16.23;55.75
62126;BME280;69591;53.282;6.150;2023-04-29T01:38:25;101609.78;;;16.22;55.57
62126;BME280;69591;53.282;6.150;2023-04-29T01:39:32;101611.38;;;16.23;55.72
62126;BME280;69591;53.282;6.150;2023-04-29T01:40:44;101615.25;;;16.22;55.51
62126;BME280;69591;53.282;6.150;2023-04-29T01:41:56;101621.50;;;16.23;55.54
62126;BME280;69591;53.282;6.150;2023-04-29T01:43:01;101620.69;;;16.22;55.56
62126;BME280;69591;53.282;6.150;2023-04-29T01:44:04;101617.19;;;16.22;55.73
62126;BME280;69591;53.282;6.150;2023-04-29T01:45:09;101620.69;;;16.22;55.54
62126;BME280;69591;53.282;6.150;2023-04-29T01:46:11;101626.13;;;16.22;55.66
62126;BME280;69591;53.282;6.150;2023-04-29T01:47:15;101623.41;;;16.22;55.52
62126;BME280;69591;53.282;6.150;2023-04-29T01:48:22;101626.13;;;16.22;55.58
62126;BME280;69591;53.282;6.150;2023-04-29T01:49:23;101628.09;;;16.22;55.81
62126;BME280;69591;53.282;6.150;2023-04-29T01:50:25;101627.28;;;16.21;55.79
62126;BME280;69591;53.282;6.150;2023-04-29T01:51:29;101631.59;;;16.22;55.53
62126;BME280;69591;53.282;6.150;2023-04-29T01:52:31;101634.31;;;16.22;55.68
62126;BME280;69591;53.282;6.150;2023-04-29T01:53:32;101626.13;;;16.22;55.70
62126;BME280;69591;53.282;6.150;2023-04-29T01:54:35;101628.09;;;16.22;55.68
62126;BME280;69591;53.282;6.150;2023-04-29T01:55:37;101630.81;;;16.22;55.61
62126;BME280;69591;53.282;6.150;2023-04-29T01:56:48;101627.28;;;16.21;55.68
62126;BME280;69591;53.282;6.150;2023-04-29T01:57:56;101630.03;;;16.21;55.70
62126;BME280;69591;53.282;6.150;2023-04-29T01:59:30;101631.94;;;16.21;55.73
62126;BME280;69591;53.282;6.150;2023-04-29T02:00:41;101632.75;;;16.21;55.70
62126;BME280;69591;53.282;6.150;2023-04-29T02:01:42;101643.66;;;16.21;55.61
62126;BME280;69591;53.282;6.150;2023-04-29T02:02:44;101634.69;;;16.21;55.59
62126;BME280;69591;53.282;6.150;2023-04-29T02:04:06;101631.19;;;16.20;55.71
62126;BME280;69591;53.282;6.150;2023-04-29T02:05:08;101640.91;;;16.21;55.62
62126;BME280;69591;53.282;6.150;2023-04-29T02:06:13;101644.81;;;16.20;55.75
62126;BME280;69591;53.282;6.150;2023-04-29T02:07:15;101646.38;;;16.21;55.58
62126;BME280;69591;53.282;6.150;2023-04-29T02:08:17;101650.25;;;16.20;55.84
62126;BME280;69591;53.282;6.150;2023-04-29T02:09:20;101648.66;;;16.19;55.84
62126;BME280;69591;53.282;6.150;2023-04-29T02:10:28;101644.81;;;16.20;55.53
62126;BME280;69591;53.282;6.150;2023-04-29T02:11:43;101652.19;;;16.20;55.70
62126;BME280;69591;53.282;6.150;2023-04-29T02:12:46;101646.38;;;16.21;55.68
62126;BME280;69591;53.282;6.150;2023-04-29T02:13:48;101662.72;;;16.21;55.57
62126;BME280;69591;53.282;6.150;2023-04-29T02:14:50;101657.28;;;16.21;55.78
62126;BME280;69591;53.282;6.150;2023-04-29T02:15:52;101655.69;;;16.20;55.53
62126;BME280;69591;53.282;6.150;2023-04-29T02:16:54;101661.16;;;16.20;55.64
62126;BME280;69591;53.282;6.150;2023-04-29T02:17:55;101667.38;;;16.21;55.78
62126;BME280;69591;53.282;6.150;2023-04-29T02:18:57;101662.72;;;16.21;55.74
62126;BME280;69591;53.282;6.150;2023-04-29T02:19:58;101666.59;;;16.20;55.60
62126;BME280;69591;53.282;6.150;2023-04-29T02:21:00;101672.81;;;16.21;55.53
62126;BME280;69591;53.282;6.150;2023-04-29T02:22:01;101672.06;;;16.20;55.50
62126;BME280;69591;53.282;6.150;2023-04-29T02:23:03;101672.06;;;16.20;55.56
62126;BME280;69591;53.282;6.150;2023-04-29T02:24:04;101674.78;;;16.20;55.82
62126;BME280;69591;53.282;6.150;2023-04-29T02:25:06;101679.44;;;16.20;55.71
62126;BME280;69591;53.282;6.150;2023-04-29T02:26:09;101678.63;;;16.19;55.52
62126;BME280;69591;53.282;6.150;2023-04-29T02:27:11;101682.16;;;16.20;55.61
62126;BME280;69591;53.282;6.150;2023-04-29T02:28:12;101688.41;;;16.20;55.54
62126;BME280;69591;53.282;6.150;2023-04-29T02:29:15;101689.16;;;16.21;55.55
62126;BME280;69591;53.282;6.150;2023-04-29T02:30:17;101693.84;;;16.20;55.81
62126;BME280;69591;53.282;6.150;2023-04-29T02:31:19;101693.06;;;16.20;55.71
62126;BME280;69591;53.282;6.150;2023-04-29T02:32:21;101695.78;;;16.20;55.69
62126;BME280;69591;53.282;6.150;2023-04-29T02:33:23;101703.94;;;16.20;55.54
62126;BME280;69591;53.282;6.150;2023-04-29T02:34:24;101697.69;;;16.19;55.79
62126;BME280;69591;53.282;6.150;2023-04-29T02:35:27;101692.25;;;16.19;55.77
62126;BME280;69591;53.282;6.150;2023-04-29T02:36:28;101693.84;;;16.20;55.70
62126;BME280;69591;53.282;6.150;2023-04-29T02:37:30;101702.03;;;16.20;55.84
62126;BME280;69591;53.282;6.150;2023-04-29T02:38:31;101708.59;;;16.19;55.56
62126;BME280;69591;53.282;6.150;2023-04-29T02:39:33;101697.69;;;16.19;55.84
62126;BME280;69591;53.282;6.150;2023-04-29T02:40:39;101703.94;;;16.20;55.92
62126;BME280;69591;53.282;6.150;2023-04-29T02:41:42;101704.31;;;16.18;55.55
62126;BME280;69591;53.282;6.150;2023-04-29T02:42:45;101708.59;;;16.19;55.65
62126;BME280;69591;53.282;6.150;2023-04-29T02:43:46;101708.59;;;16.19;55.75
62126;BME280;69591;53.282;6.150;2023-04-29T02:44:48;101705.06;;;16.19;55.71
62126;BME280;69591;53.282;6.150;2023-04-29T02:45:49;101703.16;;;16.19;55.62
62126;BME280;69591;53.282;6.150;2023-04-29T02:46:51;101707.03;;;16.18;55.77
62126;BME280;69591;53.282;6.150;2023-04-29T02:47:53;101707.81;;;16.19;55.45
62126;BME280;69591;53.282;6.150;2023-04-29T02:48:54;101708.59;;;16.19;55.75
62126;BME280;69591;53.282;6.150;2023-04-29T02:49:56;101702.34;;;16.19;55.74
62126;BME280;69591;53.282;6.150;2023-04-29T02:50:57;101708.59;;;16.19;55.79
62126;BME280;69591;53.282;6.150;2023-04-29T02:51:59;101719.50;;;16.19;55.67
62126;BME280;69591;53.282;6.150;2023-04-29T02:53:00;101713.25;;;16.19;55.53
62126;BME280;69591;53.282;6.150;2023-04-29T02:54:02;101719.50;;;16.19;55.83
62126;BME280;69591;53.282;6.150;2023-04-29T02:55:04;101712.47;;;16.18;55.63
62126;BME280;69591;53.282;6.150;2023-04-29T02:56:06;101721.44;;;16.19;55.75
62126;BME280;69591;53.282;6.150;2023-04-29T02:57:08;101719.50;;;16.19;55.56
62126;BME280;69591;53.282;6.150;2023-04-29T02:58:10;101718.69;;;16.19;55.58
62126;BME280;69591;53.282;6.150;2023-04-29T02:59:11;101717.13;;;16.18;55.53
62126;BME280;69591;53.282;6.150;2023-04-29T03:00:13;101717.94;;;16.18;55.44
62126;BME280;69591;53.282;6.150;2023-04-29T03:01:14;101723.38;;;16.18;55.67
62126;BME280;69591;53.282;6.150;2023-04-29T03:02:16;101718.69;;;16.19;55.58
62126;BME280;69591;53.282;6.150;2023-04-29T03:03:21;101724.16;;;16.19;55.57
62126;BME280;69591;53.282;6.150;2023-04-29T03:04:23;101726.09;;;16.18;55.85
62126;BME280;69591;53.282;6.150;2023-04-29T03:05:24;101726.09;;;16.18;55.52
62126;BME280;69591;53.282;6.150;2023-04-29T03:06:26;101726.09;;;16.18;55.72
62126;BME280;69591;53.282;6.150;2023-04-29T03:07:28;101724.16;;;16.19;55.57
62126;BME280;69591;53.282;6.150;2023-04-29T03:08:29;101723.38;;;16.18;55.83
62126;BME280;69591;53.282;6.150;2023-04-29T03:09:31;101728.84;;;16.18;55.79
62126;BME280;69591;53.282;6.150;2023-04-29T03:10:32;101727.22;;;16.17;55.72
62126;BME280;69591;53.282;6.150;2023-04-29T03:11:34;101723.38;;;16.18;55.55
62126;BME280;69591;53.282;6.150;2023-04-29T03:12:37;101733.47;;;16.18;55.72
62126;BME280;69591;53.282;6.150;2023-04-29T03:13:38;101734.28;;;16.18;55.51
62126;BME280;69591;53.282;6.150;2023-04-29T03:14:40;101733.47;;;16.18;55.47
62126;BME280;69591;53.282;6.150;2023-04-29T03:15:42;101734.28;;;16.18;55.58
62126;BME280;69591;53.282;6.150;2023-04-29T03:16:43;101738.13;;;16.17;55.74
62126;BME280;69591;53.282;6.150;2023-04-29T03:17:45;101743.56;;;16.17;55.74
62126;BME280;69591;53.282;6.150;2023-04-29T03:18:47;101734.28;;;16.18;55.54
62126;BME280;69591;53.282;6.150;2023-04-29T03:19:48;101733.47;;;16.18;55.59
62126;BME280;69591;53.282;6.150;2023-04-29T03:20:50;101738.13;;;16.17;55.68
62126;BME280;69591;53.282;6.150;2023-04-29T03:21:52;101738.13;;;16.17;55.81
62126;BME280;69591;53.282;6.150;2023-04-29T03:22:55;101745.19;;;16.18;55.74
62126;BME280;69591;53.282;6.150;2023-04-29T03:23:56;101747.91;;;16.18;55.50
62126;BME280;69591;53.282;6.150;2023-04-29T03:25:04;101743.56;;;16.17;55.45
62126;BME280;69591;53.282;6.150;2023-04-29T03:26:07;101753.34;;;16.18;55.53
62126;BME280;69591;53.282;6.150;2023-04-29T03:27:08;101744.38;;;16.18;55.53
62126;BME280;69591;53.282;6.150;2023-04-29T03:28:11;101750.63;;;16.18;55.67
62126;BME280;69591;53.282;6.150;2023-04-29T03:29:13;101754.47;;;16.17;55.51
62126;BME280;69591;53.282;6.150;2023-04-29T03:30:14;101751.75;;;16.17;55.74
62126;BME280;69591;53.282;6.150;2023-04-29T03:31:22;101753.72;;;16.17;55.80
62126;BME280;69591;53.282;6.150;2023-04-29T03:32:23;101756.44;;;16.17;55.55
62126;BME280;69591;53.282;6.150;2023-04-29T03:33:25;101750.97;;;16.17;55.69
62126;BME280;69591;53.282;6.150;2023-04-29T03:34:26;101752.91;;;16.16;55.54
62126;BME280;69591;53.282;6.150;2023-04-29T03:35:42;101758.00;;;16.18;55.65
62126;BME280;69591;53.282;6.150;2023-04-29T03:36:56;101758.34;;;16.16;55.77
62126;BME280;69591;53.282;6.150;2023-04-29T03:37:57;101759.16;;;16.17;55.76
62126;BME280;69591;53.282;6.150;2023-04-29T03:39:03;101761.09;;;16.16;55.69
62126;BME280;69591;53.282;6.150;2023-04-29T03:40:05;101761.88;;;16.17;55.78
62126;BME280;69591;53.282;6.150;2023-04-29T03:41:07;101756.44;;;16.17;55.80
62126;BME280;69591;53.282;6.150;2023-04-29T03:42:10;101758.34;;;16.16;55.69
62126;BME280;69591;53.282;6.150;2023-04-29T03:43:13;101769.25;;;16.16;55.55
62126;BME280;69591;53.282;6.150;2023-04-29T03:44:15;101758.34;;;16.16;55.71
62126;BME280;69591;53.282;6.150;2023-04-29T03:45:16;101763.81;;;16.16;55.49
62126;BME280;69591;53.282;6.150;2023-04-29T03:46:18;101763.00;;;16.16;55.70
62126;BME280;69591;53.282;6.150;2023-04-29T03:47:20;101767.69;;;16.15;55.67
62126;BME280;69591;53.282;6.150;2023-04-29T03:48:21;101769.25;;;16.16;55.71
62126;BME280;69591;53.282;6.150;2023-04-29T03:49:23;101763.81;;;16.16;55.83
62126;BME280;69591;53.282;6.150;2023-04-29T03:50:24;101763.81;;;16.16;55.74
62126;BME280;69591;53.282;6.150;2023-04-29T03:51:26;101769.25;;;16.16;55.70
62126;BME280;69591;53.282;6.150;2023-04-29T03:52:37;101766.53;;;16.16;55.58
62126;BME280;69591;53.282;6.150;2023-04-29T03:53:44;101771.97;;;16.16;55.60
62126;BME280;69591;53.282;6.150;2023-04-29T03:54:45;101767.69;;;16.15;55.49
62126;BME280;69591;53.282;6.150;2023-04-29T03:55:47;101769.25;;;16.16;55.56
62126;BME280;69591;53.282;6.150;2023-04-29T03:56:49;101780.16;;;16.16;55.75
62126;BME280;69591;53.282;6.150;2023-04-29T03:57:51;101766.88;;;16.15;55.57
62126;BME280;69591;53.282;6.150;2023-04-29T03:58:54;101774.69;;;16.16;55.75
62126;BME280;69591;53.282;6.150;2023-04-29T03:59:59;101775.06;;;16.15;55.86
62126;BME280;69591;53.282;6.150;2023-04-29T04:01:00;101775.06;;;16.15;55.57
62126;BME280;69591;53.282;6.150;2023-04-29T04:02:10;101777.44;;;16.16;55.46
62126;BME280;69591;53.282;6.150;2023-04-29T04:03:11;101778.59;;;16.15;55.56
62126;BME280;69591;53.282;6.150;2023-04-29T04:04:13;101784.81;;;16.16;55.47
62126;BME280;69591;53.282;6.150;2023-04-29T04:05:18;101784.81;;;16.16;55.60
62126;BME280;69591;53.282;6.150;2023-04-29T04:06:23;101781.31;;;16.15;55.67
62126;BME280;69591;53.282;6.150;2023-04-29T04:07:25;101778.59;;;16.15;55.81
62126;BME280;69591;53.282;6.150;2023-04-29T04:08:56;101781.31;;;16.15;55.77
62126;BME280;69591;53.282;6.150;2023-04-29T04:10:01;101790.25;;;16.16;55.72
62126;BME280;69591;53.282;6.150;2023-04-29T04:11:04;101789.47;;;16.15;55.47
62126;BME280;69591;53.282;6.150;2023-04-29T04:12:09;101794.94;;;16.15;55.66
62126;BME280;69591;53.282;6.150;2023-04-29T04:13:11;101797.66;;;16.15;55.56
62126;BME280;69591;53.282;6.150;2023-04-29T04:14:13;101800.38;;;16.15;55.58
62126;BME280;69591;53.282;6.150;2023-04-29T04:15:15;101801.16;;;16.16;55.59
62126;BME280;69591;53.282;6.150;2023-04-29T04:16:17;101798.44;;;16.16;55.75
62126;BME280;69591;53.282;6.150;2023-04-29T04:17:18;101800.38;;;16.15;55.53
62126;BME280;69591;53.282;6.150;2023-04-29T04:18:20;101803.09;;;16.15;55.68
62126;BME280;69591;53.282;6.150;2023-04-29T04:19:21;101807.75;;;16.15;55.81
62126;BME280;69591;53.282;6.150;2023-04-29T04:20:23;101805.84;;;16.15;55.60
62126;BME280;69591;53.282;6.150;2023-04-29T04:21:24;101815.94;;;16.15;55.78
62126;BME280;69591;53.282;6.150;2023-04-29T04:22:34;101811.28;;;16.15;55.58
62126;BME280;69591;53.282;6.150;2023-04-29T04:23:49;101809.69;;;16.14;55.57
62126;BME280;69591;53.282;6.150;2023-04-29T04:24:55;101815.94;;;16.15;55.54
62126;BME280;69591;53.282;6.150;2023-04-29T04:25:57;101822.19;;;16.15;55.58
62126;BME280;69591;53.282;6.150;2023-04-29T04:27:17;101819.44;;;16.15;55.55
62126;BME280;69591;53.282;6.150;2023-04-29T04:28:21;101823.31;;;16.14;55.51
62126;BME280;69591;53.282;6.150;2023-04-29T04:29:44;101821.38;;;16.15;55.78
62126;BME280;69591;53.282;6.150;2023-04-29T04:30:51;101822.19;;;16.15;55.49
62126;BME280;69591;53.282;6.150;2023-04-29T04:31:52;101822.19;;;16.15;55.56
62126;BME280;69591;53.282;6.150;2023-04-29T04:32:58;101826.81;;;16.15;55.61
62126;BME280;69591;53.282;6.150;2023-04-29T04:34:00;101833.06;;;16.15;55.78
62126;BME280;69591;53.282;6.150;2023-04-29T04:35:03;101833.06;;;16.15;55.49
62126;BME280;69591;53.282;6.150;2023-04-29T04:36:05;101827.97;;;16.14;55.57
62126;BME280;69591;53.282;6.150;2023-04-29T04:37:07;101835.00;;;16.15;55.77
62126;BME280;69591;53.282;6.150;2023-04-29T04:38:09;101836.94;;;16.14;55.76
62126;BME280;69591;53.282;6.150;2023-04-29T04:39:11;101832.28;;;16.15;55.51
62126;BME280;69591;53.282;6.150;2023-04-29T04:40:12;101839.66;;;16.14;55.56
62126;BME280;69591;53.282;6.150;2023-04-29T04:41:34;101838.53;;;16.15;55.48
62126;BME280;69591;53.282;6.150;2023-04-29T04:42:36;101836.16;;;16.14;55.60
62126;BME280;69591;53.282;6.150;2023-04-29T04:43:37;101839.66;;;16.14;55.76
62126;BME280;69591;53.282;6.150;2023-04-29T04:44:41;101842.38;;;16.14;55.55
62126;BME280;69591;53.282;6.150;2023-04-29T04:45:48;101845.09;;;16.14;55.49
62126;BME280;69591;53.282;6.150;2023-04-29T04:46:50;101847.81;;;16.14;55.58
62126;BME280;69591;53.282;6.150;2023-04-29T04:48:14;101843.19;;;16.15;55.51
62126;BME280;69591;53.282;6.150;2023-04-29T04:49:16;101845.91;;;16.15;55.67
62126;BME280;69591;53.282;6.150;2023-04-29T04:50:23;101854.06;;;16.15;55.60
62126;BME280;69591;53.282;6.150;2023-04-29T04:51:26;101850.56;;;16.14;55.49
62126;BME280;69591;53.282;6.150;2023-04-29T04:52:27;101851.34;;;16.15;55.56
62126;BME280;69591;53.282;6.150;2023-04-29T04:53:47;101858.72;;;16.14;55.55
62126;BME280;69591;53.282;6.150;2023-04-29T04:54:53;101863.06;;;16.15;55.78
62126;BME280;69591;53.282;6.150;2023-04-29T04:55:59;101864.16;;;16.14;55.69
62126;BME280;69591;53.282;6.150;2023-04-29T04:57:01;101869.63;;;16.14;55.73
62126;BME280;69591;53.282;6.150;2023-04-29T04:58:02;101861.44;;;16.14;55.49
62126;BME280;69591;53.282;6.150;2023-04-29T04:59:04;101864.97;;;16.15;55.79
62126;BME280;69591;53.282;6.150;2023-04-29T05:00:10;101865.78;;;16.15;55.49
62126;BME280;69591;53.282;6.150;2023-04-29T05:01:13;101859.88;;;16.13;55.52
62126;BME280;69591;53.282;6.150;2023-04-29T05:02:14;101865.78;;;16.15;55.63
62126;BME280;69591;53.282;6.150;2023-04-29T05:03:16;101864.97;;;16.15;55.51
62126;BME280;69591;53.282;6.150;2023-04-29T05:04:17;101865.78;;;16.15;55.79
62126;BME280;69591;53.282;6.150;2023-04-29T05:05:19;101868.84;;;16.14;55.54
62126;BME280;69591;53.282;6.150;2023-04-29T05:06:20;101874.31;;;16.14;55.64
62126;BME280;69591;53.282;6.150;2023-04-29T05:07:23;101872.34;;;16.14;55.41
62126;BME280;69591;53.282;6.150;2023-04-29T05:08:42;101875.06;;;16.14;55.69
62126;BME280;69591;53.282;6.150;2023-04-29T05:09:44;101875.06;;;16.14;55.42
62126;BME280;69591;53.282;6.150;2023-04-29T05:10:45;101872.34;;;16.14;55.51
62126;BME280;69591;53.282;6.150;2023-04-29T05:11:47;101868.50;;;16.15;55.78
62126;BME280;69591;53.282;6.150;2023-04-29T05:12:51;101875.06;;;16.14;55.49
62126;BME280;69591;53.282;6.150;2023-04-29T05:13:53;101873.16;;;16.15;55.58
62126;BME280;69591;53.282;6.150;2023-04-29T05:14:55;101872.34;;;16.14;55.73
62126;BME280;69591;53.282;6.150;2023-04-29T05:15:57;101873.50;;;16.13;55.62
62126;BME280;69591;53.282;6.150;2023-04-29T05:17:04;101880.53;;;16.14;55.72
62126;BME280;69591;53.282;6.150;2023-04-29T05:18:05;101881.69;;;16.13;55.78
62126;BME280;69591;53.282;6.150;2023-04-29T05:19:08;101877.03;;;16.14;55.50
62126;BME280;69591;53.282;6.150;2023-04-29T05:20:12;101879.75;;;16.14;55.71
62126;BME280;69591;53.282;6.150;2023-04-29T05:21:13;101878.94;;;16.13;55.58
62126;BME280;69591;53.282;6.150;2023-04-29T05:22:17;101880.53;;;16.14;55.61
62126;BME280;69591;53.282;6.150;2023-04-29T05:23:19;101877.78;;;16.14;55.54
62126;BME280;69591;53.282;6.150;2023-04-29T05:24:21;101885.97;;;16.14;55.71
62126;BME280;69591;53.282;6.150;2023-04-29T05:25:23;101885.97;;;16.14;55.81
62126;BME280;69591;53.282;6.150;2023-04-29T05:26:25;101880.53;;;16.14;55.47
62126;BME280;69591;53.282;6.150;2023-04-29T05:27:30;101883.25;;;16.14;55.65
62126;BME280;69591;53.282;6.150;2023-04-29T05:28:32;101880.53;;;16.14;55.80
62126;BME280;69591;53.282;6.150;2023-04-29T05:29:33;101879.75;;;16.14;55.79
62126;BME280;69591;53.282;6.150;2023-04-29T05:30:36;101887.94;;;16.14;55.70
62126;BME280;69591;53.282;6.150;2023-04-29T05:31:38;101883.25;;;16.14;55.54
62126;BME280;69591;53.282;6.150;2023-04-29T05:32:42;101881.69;;;16.13;55.53
62126;BME280;69591;53.282;6.150;2023-04-29T05:33:47;101880.53;;;16.14;55.63